Log in Register

Login to your account

Username *
Password *
Remember Me

Create an account

Fields marked with an asterisk (*) are required.
Name *
Username *
Password *
Verify password *
Email *
Verify email *

Nous contacter

 Téléphone : +33 (0)4 79 54 41 81

Coordonnées détaillées et accès : cliquez ici

 
LFLB °C
    Ferienhaus Ostsee
[source: ADDS]
METAR
LFLB 031000Z AUTO 00000KT 9999 BKN035 01/M01 Q1019 NOSIG =
TAF LFLB 030800Z 0309/0409 VRB02KT 9999 SCT035 TEMPO 0309/0312 01008KT BKN035 BECMG 0318/0322 20010KT OVC055 TEMPO 0322/0409 18015G25KT 4000 RA BKN010 OVC045
TAF
TAF LFLB 030800Z 0309/0409 VRB02KT 9999 SCT035 TEMPO 0309/0312 01008KT BKN035 BECMG 0318/0322 20010KT OVC055 TEMPO 0322/0409 18015G25KT 4000 RA BKN010 OVC045 =
SR / SS: 06:59 / 15:53 UTC (Lever/Coucher du soleil le 2021-12-03)
JSN Boot template designed by JoomlaShine.com